createdAt,value
2023-03-20T00:01:53.053Z,410.70
2023-03-20T00:06:54.211Z,401.20
2023-03-20T00:11:52.351Z,442.40
2023-03-20T00:16:51.538Z,442.40
2023-03-20T00:21:50.661Z,442.40
2023-03-20T00:26:51.055Z,442.40
2023-03-20T00:31:50.377Z,442.40
2023-03-20T00:36:48.485Z,442.40
2023-03-20T00:41:47.786Z,442.40
2023-03-20T00:46:48.223Z,442.40
2023-03-20T00:51:46.317Z,442.40
2023-03-20T00:56:45.630Z,442.40
2023-03-20T01:01:45.924Z,442.40
2023-03-20T01:06:44.202Z,442.40
2023-03-20T01:11:43.500Z,442.40
2023-03-20T01:16:43.914Z,442.40
2023-03-20T01:21:44.039Z,442.40
2023-03-20T01:26:41.323Z,442.40
2023-03-20T01:31:40.632Z,442.40
2023-03-20T01:36:39.926Z,442.40
2023-03-20T01:41:39.186Z,442.40
2023-03-20T01:46:40.515Z,442.40
2023-03-20T01:51:38.798Z,442.40
2023-03-20T01:56:39.124Z,442.40
2023-03-20T02:01:37.418Z,442.40
2023-03-20T02:06:35.636Z,442.40
2023-03-20T02:11:34.814Z,442.40
2023-03-20T02:16:35.088Z,442.40
2023-03-20T02:21:34.289Z,442.40
2023-03-20T02:26:32.485Z,442.40
2023-03-20T02:31:31.700Z,442.40
2023-03-20T02:36:30.844Z,441.50
2023-03-20T02:41:28.978Z,416.20
2023-03-20T02:46:29.175Z,416.20
2023-03-20T02:51:28.282Z,416.20
2023-03-20T02:56:28.600Z,416.20
2023-03-20T03:01:26.789Z,416.20
2023-03-20T03:06:25.958Z,416.20
2023-03-20T03:11:25.129Z,416.20
2023-03-20T03:16:24.383Z,416.20
2023-03-20T03:21:23.545Z,416.20
2023-03-20T03:26:22.680Z,416.20
2023-03-20T03:31:23.084Z,464.80
2023-03-20T03:36:21.245Z,447.40
2023-03-20T03:41:20.400Z,418.50
2023-03-20T03:46:19.547Z,418.50
2023-03-20T03:51:18.744Z,389.40
2023-03-20T03:56:17.894Z,384.30
2023-03-20T04:01:19.053Z,405.10
2023-03-20T04:06:16.361Z,403.80
2023-03-20T04:11:15.689Z,437.20
2023-03-20T04:16:16.056Z,447.20
2023-03-20T04:21:14.198Z,447.20
2023-03-20T04:26:13.500Z,447.20
2023-03-20T04:31:13.852Z,447.20
2023-03-20T04:36:12.133Z,447.20
2023-03-20T04:41:11.406Z,447.20
2023-03-20T04:46:11.764Z,447.20
2023-03-20T04:51:10.841Z,447.20
2023-03-20T04:56:10.148Z,447.20
2023-03-20T05:01:09.403Z,447.20
2023-03-20T05:06:08.537Z,447.20
2023-03-20T05:11:06.866Z,447.20
2023-03-20T05:16:07.171Z,447.20
2023-03-20T05:21:05.471Z,447.20
2023-03-20T05:26:04.801Z,447.20
2023-03-20T05:31:04.055Z,447.20
2023-03-20T05:36:03.346Z,447.20
2023-03-20T05:41:02.490Z,447.20
2023-03-20T05:46:03.800Z,447.20
2023-03-20T05:51:01.112Z,447.20
2023-03-20T05:56:02.391Z,447.20
2023-03-20T06:01:00.568Z,447.20
2023-03-20T06:05:58.739Z,447.20
2023-03-20T06:10:57.903Z,447.20
2023-03-20T06:15:59.149Z,447.20
2023-03-20T06:20:57.378Z,447.20
2023-03-20T06:25:58.571Z,447.20
2023-03-20T06:30:54.844Z,447.20
2023-03-20T06:35:53.085Z,447.20
2023-03-20T06:40:53.347Z,447.20
2023-03-20T06:45:53.556Z,447.20
2023-03-20T06:50:51.767Z,447.20
2023-03-20T06:55:51.985Z,447.20
2023-03-20T07:00:52.184Z,447.20
2023-03-20T07:05:50.391Z,447.20
2023-03-20T07:10:48.638Z,447.20
2023-03-20T07:16:03.013Z,447.20
2023-03-20T07:20:47.107Z,447.20
2023-03-20T07:25:46.474Z,447.20
2023-03-20T07:30:46.567Z,447.20
2023-03-20T07:35:44.794Z,447.20
2023-03-20T07:40:44.969Z,447.20
2023-03-20T07:45:44.198Z,447.20
2023-03-20T07:50:43.361Z,447.20
2023-03-20T07:55:42.551Z,447.20
2023-03-20T08:00:40.731Z,447.20
2023-03-20T08:05:39.900Z,447.20
2023-03-20T08:10:39.033Z,447.20
2023-03-20T08:15:38.814Z,447.20
2023-03-20T08:20:37.444Z,447.20
2023-03-20T08:25:35.862Z,447.20
2023-03-20T08:30:35.858Z,447.20
2023-03-20T08:35:36.084Z,447.20
2023-03-20T08:40:34.298Z,447.20
2023-03-20T08:45:35.743Z,447.20
2023-03-20T08:50:33.825Z,447.20
2023-03-20T08:55:30.981Z,447.20
2023-03-20T09:00:32.251Z,447.20
2023-03-20T09:05:32.356Z,447.20
2023-03-20T09:10:29.558Z,447.20
2023-03-20T09:15:29.735Z,447.20
2023-03-20T09:20:27.909Z,447.20
2023-03-20T09:25:27.126Z,447.20
2023-03-20T09:30:26.345Z,447.20
2023-03-20T09:35:25.525Z,447.20
2023-03-20T09:40:24.727Z,447.20
2023-03-20T09:45:23.927Z,447.20
2023-03-20T09:50:23.112Z,447.20
2023-03-20T09:55:22.372Z,447.20
2023-03-20T10:00:21.662Z,447.20
2023-03-20T10:05:20.744Z,447.20
2023-03-20T10:10:19.917Z,447.20
2023-03-20T10:15:19.111Z,447.20
2023-03-20T10:20:18.324Z,447.20
2023-03-20T10:25:19.545Z,447.20
2023-03-20T10:30:16.797Z,447.20
2023-03-20T10:35:16.995Z,447.20
2023-03-20T10:40:16.161Z,447.20
2023-03-20T10:45:16.331Z,447.20
2023-03-20T10:50:13.504Z,447.20
2023-03-20T10:55:12.896Z,447.20
2023-03-20T11:00:11.869Z,447.20
2023-03-20T11:05:10.051Z,447.20
2023-03-20T11:10:11.264Z,447.20
2023-03-20T11:15:09.545Z,398.40
2023-03-20T11:20:10.860Z,354.80
2023-03-20T11:25:10.192Z,381.60
2023-03-20T11:30:07.349Z,395.40
2023-03-20T11:35:10.643Z,358.50
2023-03-20T11:40:05.724Z,382.10
2023-03-20T11:45:06.077Z,392.00
2023-03-20T11:50:05.364Z,412.50
2023-03-20T11:55:03.534Z,405.50
2023-03-20T12:00:02.681Z,423.80
2023-03-20T12:05:02.007Z,424.10
2023-03-20T12:10:01.336Z,401.40
2023-03-20T12:15:01.673Z,410.00
2023-03-20T12:20:00.006Z,435.80
2023-03-20T12:25:00.159Z,417.50
2023-03-20T12:29:58.299Z,424.00
2023-03-20T12:34:57.447Z,414.30
2023-03-20T12:39:57.634Z,400.50
2023-03-20T12:44:55.775Z,413.90
2023-03-20T12:49:55.937Z,409.30
2023-03-20T12:54:55.258Z,416.20
2023-03-20T12:59:53.726Z,415.90
2023-03-20T13:04:51.980Z,423.00
2023-03-20T13:09:54.125Z,406.50
2023-03-20T13:14:50.488Z,410.40
2023-03-20T13:19:50.644Z,416.00
2023-03-20T13:24:49.777Z,415.20
2023-03-20T13:29:48.955Z,411.70
2023-03-20T13:34:48.096Z,405.00
2023-03-20T13:39:48.321Z,423.90
2023-03-20T13:44:47.456Z,417.60
2023-03-20T13:49:45.692Z,379.90
2023-03-20T13:54:44.928Z,404.20
2023-03-20T13:59:44.110Z,384.00
2023-03-20T14:04:45.310Z,418.50
2023-03-20T14:09:42.470Z,406.80
2023-03-20T14:14:41.663Z,413.70
2023-03-20T14:19:40.793Z,389.30
2023-03-20T14:24:39.924Z,364.20
2023-03-20T14:29:39.161Z,330.70
2023-03-20T14:34:39.304Z,374.20
2023-03-20T14:39:38.604Z,393.80
2023-03-20T14:44:36.879Z,425.40
2023-03-20T14:49:37.189Z,409.90
2023-03-20T14:54:36.490Z,410.20
2023-03-20T14:59:34.821Z,410.50
2023-03-20T15:04:34.969Z,417.40
2023-03-20T15:09:35.282Z,410.00
2023-03-20T15:14:34.754Z,406.30
2023-03-20T15:19:33.905Z,416.80
2023-03-20T15:24:31.210Z,450.30
2023-03-20T15:29:30.549Z,431.20
2023-03-20T15:34:29.894Z,434.70
2023-03-20T15:39:30.187Z,447.90
2023-03-20T15:44:28.528Z,435.40
2023-03-20T15:49:28.662Z,443.10
2023-03-20T15:54:27.952Z,425.10
2023-03-20T15:59:26.290Z,438.10
2023-03-20T16:04:25.656Z,473.00
2023-03-20T16:09:26.832Z,469.00
2023-03-20T16:14:23.933Z,378.30
2023-03-20T16:19:23.081Z,411.20
2023-03-20T16:24:23.206Z,432.40
2023-03-20T16:29:21.539Z,436.70
2023-03-20T16:34:20.706Z,446.50
2023-03-20T16:39:20.842Z,424.80
2023-03-20T16:44:19.000Z,401.30
2023-03-20T16:49:18.129Z,429.50
2023-03-20T16:54:19.517Z,412.00
2023-03-20T16:59:16.658Z,415.90
2023-03-20T17:04:17.109Z,427.70
2023-03-20T17:09:15.224Z,395.10
2023-03-20T17:14:14.429Z,410.30
2023-03-20T17:19:14.572Z,411.90
2023-03-20T17:24:12.896Z,400.00
2023-03-20T17:29:13.052Z,422.90
2023-03-20T17:34:11.164Z,421.20
2023-03-20T17:39:10.700Z,427.70
2023-03-20T17:44:08.996Z,407.60
2023-03-20T17:49:09.997Z,368.30
2023-03-20T17:54:08.428Z,390.70
2023-03-20T17:59:07.575Z,386.40
2023-03-20T18:04:06.909Z,438.30
2023-03-20T18:09:07.461Z,405.90
2023-03-20T18:14:04.546Z,406.70
2023-03-20T18:19:05.863Z,406.70
2023-03-20T18:24:05.211Z,406.70
2023-03-20T18:29:03.049Z,406.70
2023-03-20T18:34:02.550Z,427.70
2023-03-20T18:39:03.341Z,404.50
2023-03-20T18:44:03.774Z,464.70
2023-03-20T18:49:00.983Z,445.20
2023-03-20T18:53:59.403Z,405.50
2023-03-20T18:58:58.733Z,436.50
2023-03-20T19:03:57.945Z,408.40
2023-03-20T19:08:58.174Z,425.70
2023-03-20T19:13:57.000Z,373.70
2023-03-20T19:19:00.022Z,420.30
2023-03-20T19:23:54.997Z,417.70
2023-03-20T19:28:54.239Z,427.10
2023-03-20T19:33:53.322Z,405.70
2023-03-20T19:38:52.584Z,421.30
2023-03-20T19:43:54.016Z,429.20
2023-03-20T19:48:51.494Z,410.70
2023-03-20T19:53:49.802Z,432.30
2023-03-20T19:58:50.285Z,421.90
2023-03-20T20:03:48.599Z,422.30
2023-03-20T20:08:49.323Z,396.00
2023-03-20T20:18:47.280Z,461.90
2023-03-20T20:23:47.409Z,431.40
2023-03-20T20:28:44.420Z,449.70
2023-03-20T20:33:59.238Z,436.40
2023-03-20T20:38:51.102Z,364.50
2023-03-20T20:44:14.160Z,423.30
2023-03-20T20:48:45.733Z,409.20
2023-03-20T20:53:40.779Z,424.70
2023-03-20T20:58:39.917Z,412.50
2023-03-20T21:03:40.485Z,322.50
2023-03-20T21:08:38.281Z,431.10
2023-03-20T21:13:38.652Z,349.90
2023-03-20T21:18:48.353Z,382.30
2023-03-20T21:23:37.084Z,420.70
2023-03-20T21:28:35.225Z,393.80
2023-03-20T21:33:34.660Z,403.60
2023-03-20T21:43:32.864Z,441.40
2023-03-20T22:04:00.579Z,383.80
2023-03-20T22:09:30.804Z,420.10
2023-03-20T22:24:20.434Z,411.10
2023-03-20T22:39:10.438Z,427.50
2023-03-20T22:48:24.049Z,390.50
2023-03-20T22:53:21.367Z,385.30
2023-03-20T22:58:20.740Z,450.40
2023-03-20T23:03:33.723Z,429.70
2023-03-20T23:08:19.075Z,410.20
2023-03-20T23:13:18.459Z,383.70
2023-03-20T23:18:18.596Z,408.70
2023-03-20T23:23:16.932Z,379.70
2023-03-20T23:28:16.143Z,388.10
2023-03-20T23:33:15.382Z,384.80
2023-03-20T23:38:14.497Z,428.40
2023-03-20T23:43:13.853Z,408.90
2023-03-20T23:48:14.027Z,415.30
2023-03-20T23:53:20.658Z,305.00
2023-03-20T23:58:11.300Z,327.70
